Terminal Aerodrome Forecast
Issued by NWS

Home | Current Version | Previous Version | Text Only | Print | Product List | Glossary On
Versions: 1 2 3 4 5 6 7 8 9 10 11 12 13 14 15 16
557
FTUS43 KGRR 240050 AAA
TAFBTL
TAF AMD
KBTL 240050Z 2401/2424 19007KT P6SM BKN200
     FM241100 19006KT P6SM VCSH SCT040 BKN080
     FM241500 19008KT 4SM -SHRA BR VCTS OVC015CB
     FM242200 20010KT P6SM BKN035=

USA.gov is the U.S. government's official web portal to all federal, state and local government web resources and services.